No particular awareness of the weather is required.    There are no Weather-warnings


Meteo18 Weather Cam more information Meteo18 Weather Cam


Thunder radar more information blitzortung!


Rain radar more information rain snow radar


Visit our other weather sites:

Template documentation
and downloads

And another site



Weather Underground History page Text

Daily Summary for February 16, 2018 Units:  Both    English   Metric
« Previous Day
Next Day »
Daily Weekly Monthly Yearly Custom
  High: Low: Average:
Temperature: TemperatureC °F /  -17.8 °C 4.8 °F /  -15.1 °C 7.2 °F /  -13.8 °C
Dew Point: DewpointC °F /  -17.8 °C 3.9 °F /  -15.6 °C 5.2 °F /  -14.9 °C
Humidity: Humidity % 75 % 87 %
Wind Speed: WindSpeedKMH mph /  0 km/h - 5.7 mph /  9.2 km/h
Wind Gust: WindSpeedGustKMH mph /  0 km/h - -
Wind:- - East
Pressure: PressurehPa in /  0 hPa 1019.2 in /  34510.1 hPa -
Precipitation: 0.3 in /  7.62 mm    
Historical Graphs
 
 
Tabular Data for February 16, 2018
Time Temperature Dew Point Pressure Wind Wind Speed Wind Gust Humidity Rainfall Rate (Hourly)
TemperatureC °F /  -17.8 °C DewpointC °F /  -17.8 °C PressurehPa in /  0 hPa Calm     Humidity % HourlyPrecipMM in /  0 mm
00:05 9.0 °F /  -12.8 °C 8.2 °F /  -13.2 °C 1021.9 in /  34601.5 hPa WNW 1.4 mph /  2.3 km/h 8.0 mph /  12.9 km/h 95 % 0.0 in /  0 mm
00:11 9.0 °F /  -12.8 °C 8.2 °F /  -13.2 °C 1021.9 in /  34601.5 hPa Calm   4.8 mph /  7.7 km/h 95 % 0.0 in /  0 mm
00:17 9.0 °F /  -12.8 °C 8.2 °F /  -13.2 °C 1021.9 in /  34601.5 hPa Calm   1.6 mph /  2.6 km/h 95 % 0.0 in /  0 mm
00:23 8.9 °F /  -12.8 °C 8.1 °F /  -13.3 °C 1021.9 in /  34601.5 hPa Calm     95 % 0.0 in /  0 mm
00:29 8.9 °F /  -12.8 °C 8.1 °F /  -13.3 °C 1021.6 in /  34591.4 hPa Calm     95 % 0.0 in /  0 mm
00:35 8.9 °F /  -12.8 °C 8.1 °F /  -13.3 °C 1021.9 in /  34601.5 hPa Calm     95 % 0.0 in /  0 mm
00:41 8.9 °F /  -12.8 °C 8.1 °F /  -13.3 °C 1021.9 in /  34601.5 hPa NW 1.4 mph /  2.3 km/h 1.6 mph /  2.6 km/h 95 % 0.0 in /  0 mm
00:47 8.9 °F /  -12.8 °C 8.1 °F /  -13.3 °C 1022.2 in /  34611.7 hPa Calm   1.6 mph /  2.6 km/h 95 % 0.0 in /  0 mm
00:53 8.9 °F /  -12.8 °C 8.1 °F /  -13.3 °C 1022.2 in /  34611.7 hPa Calm   1.6 mph /  2.6 km/h 95 % 0.0 in /  0 mm
01:00 8.9 °F /  -12.8 °C 8.1 °F /  -13.3 °C 1022.2 in /  34611.7 hPa Calm     95 % 0.0 in /  0 mm
01:06 8.8 °F /  -12.9 °C 8.2 °F /  -13.2 °C 1022.6 in /  34625.2 hPa Calm   1.6 mph /  2.6 km/h 96 % 0.0 in /  0 mm
01:12 8.8 °F /  -12.9 °C 8.2 °F /  -13.2 °C 1022.6 in /  34625.2 hPa WNW 1.4 mph /  2.3 km/h 4.8 mph /  7.7 km/h 96 % 0.0 in /  0 mm
01:18 8.8 °F /  -12.9 °C 8.2 °F /  -13.2 °C 1022.6 in /  34625.2 hPa Calm   3.2 mph /  5.1 km/h 96 % 0.0 in /  0 mm
01:24 8.7 °F /  -12.9 °C 8.1 °F /  -13.3 °C 1022.6 in /  34625.2 hPa NE 16.3 mph /  26.2 km/h 17.7 mph /  28.5 km/h 96 % 0.0 in /  0 mm
01:30 8.4 °F /  -13.1 °C 7.6 °F /  -13.6 °C 1022.6 in /  34625.2 hPa NNE 6.4 mph /  10.3 km/h 12.9 mph /  20.8 km/h 95 % 0.0 in /  0 mm
01:36 8.2 °F /  -13.2 °C 7.6 °F /  -13.6 °C 1022.9 in /  34635.4 hPa NNW 4.7 mph /  7.6 km/h 11.3 mph /  18.2 km/h 96 % 0.0 in /  0 mm
01:42 8.0 °F /  -13.3 °C 7.4 °F /  -13.7 °C 1022.9 in /  34635.4 hPa NNW 1.4 mph /  2.3 km/h 16.1 mph /  25.9 km/h 96 % 0.0 in /  0 mm
01:48 7.9 °F /  -13.4 °C 7.3 °F /  -13.7 °C 1022.9 in /  34635.4 hPa NNE 7.9 mph /  12.7 km/h 16.1 mph /  25.9 km/h 96 % 0.0 in /  0 mm
01:54 7.8 °F /  -13.4 °C 7.2 °F /  -13.8 °C 1022.9 in /  34635.4 hPa NE 4.7 mph /  7.6 km/h 12.9 mph /  20.8 km/h 96 % 0.0 in /  0 mm
02:00 7.8 °F /  -13.4 °C 7.2 °F /  -13.8 °C 1022.9 in /  34635.4 hPa NW 3.2 mph /  5.1 km/h 9.7 mph /  15.6 km/h 96 % 0.0 in /  0 mm
02:06 7.7 °F /  -13.5 °C 7.1 °F /  -13.8 °C 1022.9 in /  34635.4 hPa NNW 3.2 mph /  5.1 km/h 6.4 mph /  10.3 km/h 96 % 0.0 in /  0 mm
02:12 7.7 °F /  -13.5 °C 6.9 °F /  -13.9 °C 1023.2 in /  34645.6 hPa North 7.9 mph /  12.7 km/h 11.3 mph /  18.2 km/h 95 % 0.0 in /  0 mm
02:18 7.6 °F /  -13.6 °C 6.9 °F /  -13.9 °C 1023.2 in /  34645.6 hPa North 6.4 mph /  10.3 km/h 16.1 mph /  25.9 km/h 95 % 0.0 in /  0 mm
02:24 7.4 °F /  -13.7 °C 6.7 °F /  -14.1 °C 1023.2 in /  34645.6 hPa NNW 6.4 mph /  10.3 km/h 12.9 mph /  20.8 km/h 95 % 0.0 in /  0 mm
02:30 7.4 °F /  -13.7 °C 6.7 °F /  -14.1 °C 1023.2 in /  34645.6 hPa North 6.4 mph /  10.3 km/h 14.5 mph /  23.3 km/h 95 % 0.0 in /  0 mm
02:36 7.4 °F /  -13.7 °C 6.7 °F /  -14.1 °C 1023.2 in /  34645.6 hPa NE 7.9 mph /  12.7 km/h 12.9 mph /  20.8 km/h 95 % 0.0 in /  0 mm
02:42 7.4 °F /  -13.7 °C 6.7 °F /  -14.1 °C 1023.2 in /  34645.6 hPa NNW 4.7 mph /  7.6 km/h 16.1 mph /  25.9 km/h 95 % 0.0 in /  0 mm
02:48 7.3 °F /  -13.7 °C 6.6 °F /  -14.1 °C 1023.6 in /  34659.1 hPa WNW 3.2 mph /  5.1 km/h 12.9 mph /  20.8 km/h 95 % 0.0 in /  0 mm
02:54 7.3 °F /  -13.7 °C 6.6 °F /  -14.1 °C 1023.6 in /  34659.1 hPa NNW 4.7 mph /  7.6 km/h 11.3 mph /  18.2 km/h 95 % 0.0 in /  0 mm
03:00 7.3 °F /  -13.7 °C 6.6 °F /  -14.1 °C 1023.6 in /  34659.1 hPa North 9.7 mph /  15.6 km/h 16.1 mph /  25.9 km/h 95 % 0.0 in /  0 mm
03:06 7.3 °F /  -13.7 °C 6.6 °F /  -14.1 °C 1023.6 in /  34659.1 hPa NW 9.7 mph /  15.6 km/h 16.1 mph /  25.9 km/h 95 % 0.0 in /  0 mm
03:12 7.2 °F /  -13.8 °C 6.3 °F /  -14.3 °C 1023.9 in /  34669.3 hPa NE 9.7 mph /  15.6 km/h 19.3 mph /  31.1 km/h 94 % 0.0 in /  0 mm
03:18 6.6 °F /  -14.1 °C 5.5 °F /  -14.7 °C 1023.9 in /  34669.3 hPa North 20.9 mph /  33.6 km/h 25.7 mph /  41.4 km/h 93 % 0.0 in /  0 mm
03:24 6.3 °F /  -14.3 °C 5.1 °F /  -14.9 °C 1023.9 in /  34669.3 hPa NNE 3.2 mph /  5.1 km/h 19.3 mph /  31.1 km/h 92 % 0.0 in /  0 mm
03:30 6.3 °F /  -14.3 °C 5.1 °F /  -14.9 °C 1024.3 in /  34682.8 hPa WNW 6.4 mph /  10.3 km/h 17.7 mph /  28.5 km/h 92 % 0.0 in /  0 mm
03:36 6.2 °F /  -14.3 °C 5.0 °F /  -15 °C 1024.3 in /  34682.8 hPa NNW 3.2 mph /  5.1 km/h 8.0 mph /  12.9 km/h 92 % 0.0 in /  0 mm
03:42 6.2 °F /  -14.3 °C 5.0 °F /  -15 °C 1024.3 in /  34682.8 hPa NNW 6.4 mph /  10.3 km/h 11.3 mph /  18.2 km/h 92 % 0.0 in /  0 mm
03:54 6.1 °F /  -14.4 °C 5.1 °F /  -14.9 °C 1024.3 in /  34682.8 hPa NNE 4.7 mph /  7.6 km/h 9.7 mph /  15.6 km/h 93 % 0.0 in /  0 mm
04:00 6.1 °F /  -14.4 °C 5.1 °F /  -14.9 °C 1024.3 in /  34682.8 hPa NW 1.4 mph /  2.3 km/h 9.7 mph /  15.6 km/h 93 % 0.0 in /  0 mm
04:06 6.0 °F /  -14.4 °C 5.0 °F /  -15 °C 1024.3 in /  34682.8 hPa NNE 4.7 mph /  7.6 km/h 9.7 mph /  15.6 km/h 93 % 0.0 in /  0 mm
04:12 5.9 °F /  -14.5 °C 4.9 °F /  -15.1 °C 1024.3 in /  34682.8 hPa NNE 1.4 mph /  2.3 km/h 9.7 mph /  15.6 km/h 93 % 0.0 in /  0 mm
04:18 5.8 °F /  -14.6 °C 4.8 °F /  -15.1 °C 1024.3 in /  34682.8 hPa NNW 4.7 mph /  7.6 km/h 11.3 mph /  18.2 km/h 93 % 0.0 in /  0 mm
04:24 5.8 °F /  -14.6 °C 4.8 °F /  -15.1 °C 1024.3 in /  34682.8 hPa NNE 6.4 mph /  10.3 km/h 11.3 mph /  18.2 km/h 93 % 0.0 in /  0 mm
04:30 5.7 °F /  -14.6 °C 4.7 °F /  -15.2 °C 1024.3 in /  34682.8 hPa North 6.4 mph /  10.3 km/h 8.0 mph /  12.9 km/h 93 % 0.0 in /  0 mm
04:36 5.7 °F /  -14.6 °C 4.7 °F /  -15.2 °C 1024.3 in /  34682.8 hPa NNW 7.9 mph /  12.7 km/h 11.3 mph /  18.2 km/h 93 % 0.0 in /  0 mm
04:42 5.7 °F /  -14.6 °C 4.7 °F /  -15.2 °C 1024.3 in /  34682.8 hPa East 3.2 mph /  5.1 km/h 11.3 mph /  18.2 km/h 93 % 0.0 in /  0 mm
04:48 5.7 °F /  -14.6 °C 4.7 °F /  -15.2 °C 1024.6 in /  34693 hPa North 7.9 mph /  12.7 km/h 9.7 mph /  15.6 km/h 93 % 0.0 in /  0 mm
04:54 5.7 °F /  -14.6 °C 4.7 °F /  -15.2 °C 1024.6 in /  34693 hPa North 1.4 mph /  2.3 km/h 4.8 mph /  7.7 km/h 93 % 0.0 in /  0 mm
05:00 5.7 °F /  -14.6 °C 4.7 °F /  -15.2 °C 1024.6 in /  34693 hPa North 6.4 mph /  10.3 km/h 14.5 mph /  23.3 km/h 93 % 0.0 in /  0 mm
05:06 5.7 °F /  -14.6 °C 4.7 °F /  -15.2 °C 1024.9 in /  34703.1 hPa North 3.2 mph /  5.1 km/h 6.4 mph /  10.3 km/h 93 % 0.0 in /  0 mm
05:12 5.7 °F /  -14.6 °C 4.7 °F /  -15.2 °C 1024.9 in /  34703.1 hPa North 1.4 mph /  2.3 km/h 6.4 mph /  10.3 km/h 93 % 0.0 in /  0 mm
05:18 5.8 °F /  -14.6 °C 4.6 °F /  -15.2 °C 1024.9 in /  34703.1 hPa North 3.2 mph /  5.1 km/h 4.8 mph /  7.7 km/h 92 % 0.0 in /  0 mm
05:24 5.8 °F /  -14.6 °C 4.6 °F /  -15.2 °C 1024.9 in /  34703.1 hPa North 1.4 mph /  2.3 km/h 4.8 mph /  7.7 km/h 92 % 0.0 in /  0 mm
05:30 5.8 °F /  -14.6 °C 4.6 °F /  -15.2 °C 1024.9 in /  34703.1 hPa Calm   4.8 mph /  7.7 km/h 92 % 0.0 in /  0 mm
05:36 5.7 °F /  -14.6 °C 4.5 °F /  -15.3 °C 1025.3 in /  34716.7 hPa North 1.4 mph /  2.3 km/h 3.2 mph /  5.1 km/h 92 % 0.0 in /  0 mm
05:42 5.7 °F /  -14.6 °C 4.5 °F /  -15.3 °C 1025.3 in /  34716.7 hPa Calm   3.2 mph /  5.1 km/h 92 % 0.0 in /  0 mm
05:48 5.7 °F /  -14.6 °C 4.5 °F /  -15.3 °C 1025.3 in /  34716.7 hPa North 3.2 mph /  5.1 km/h 6.4 mph /  10.3 km/h 92 % 0.0 in /  0 mm
05:54 5.7 °F /  -14.6 °C 4.5 °F /  -15.3 °C 1025.3 in /  34716.7 hPa North 9.7 mph /  15.6 km/h 12.9 mph /  20.8 km/h 92 % 0.0 in /  0 mm
06:00 5.7 °F /  -14.6 °C 4.5 °F /  -15.3 °C 1025.3 in /  34716.7 hPa North 4.7 mph /  7.6 km/h 6.4 mph /  10.3 km/h 92 % 0.0 in /  0 mm
06:06 5.7 °F /  -14.6 °C 4.7 °F /  -15.2 °C 1025.3 in /  34716.7 hPa NNW 3.2 mph /  5.1 km/h 6.4 mph /  10.3 km/h 93 % 0.0 in /  0 mm
06:12 5.6 °F /  -14.7 °C 4.6 °F /  -15.2 °C 1025.3 in /  34716.7 hPa Calm   6.4 mph /  10.3 km/h 93 % 0.0 in /  0 mm
06:18 5.6 °F /  -14.7 °C 4.6 °F /  -15.2 °C 1025.3 in /  34716.7 hPa NNW 6.4 mph /  10.3 km/h 8.0 mph /  12.9 km/h 93 % 0.0 in /  0 mm
06:24 5.6 °F /  -14.7 °C 4.6 °F /  -15.2 °C 1025.3 in /  34716.7 hPa NW 3.2 mph /  5.1 km/h 8.0 mph /  12.9 km/h 93 % 0.0 in /  0 mm
06:30 5.5 °F /  -14.7 °C 4.5 °F /  -15.3 °C 1025.3 in /  34716.7 hPa NNE 4.7 mph /  7.6 km/h 9.7 mph /  15.6 km/h 93 % 0.0 in /  0 mm
06:36 5.5 °F /  -14.7 °C 4.5 °F /  -15.3 °C 1025.3 in /  34716.7 hPa NNW 4.7 mph /  7.6 km/h 8.0 mph /  12.9 km/h 93 % 0.0 in /  0 mm
06:42 5.4 °F /  -14.8 °C 4.4 °F /  -15.3 °C 1025.3 in /  34716.7 hPa North 6.4 mph /  10.3 km/h 6.4 mph /  10.3 km/h 93 % 0.0 in /  0 mm
06:48 5.4 °F /  -14.8 °C 4.4 °F /  -15.3 °C 1025.3 in /  34716.7 hPa North 3.2 mph /  5.1 km/h 8.0 mph /  12.9 km/h 93 % 0.0 in /  0 mm
06:54 5.4 °F /  -14.8 °C 4.4 °F /  -15.3 °C 1025.3 in /  34716.7 hPa Calm   4.8 mph /  7.7 km/h 93 % 0.0 in /  0 mm
07:00 5.4 °F /  -14.8 °C 4.4 °F /  -15.3 °C 1025.3 in /  34716.7 hPa Calm   6.4 mph /  10.3 km/h 93 % 0.0 in /  0 mm
07:06 5.3 °F /  -14.8 °C 4.3 °F /  -15.4 °C 1025.6 in /  34726.8 hPa NNE 3.2 mph /  5.1 km/h 6.4 mph /  10.3 km/h 93 % 0.0 in /  0 mm
07:12 5.3 °F /  -14.8 °C 4.3 °F /  -15.4 °C 1025.6 in /  34726.8 hPa NNW 3.2 mph /  5.1 km/h 4.8 mph /  7.7 km/h 93 % 0.0 in /  0 mm
07:18 5.3 °F /  -14.8 °C 4.3 °F /  -15.4 °C 1025.6 in /  34726.8 hPa NNE 1.4 mph /  2.3 km/h 4.8 mph /  7.7 km/h 93 % 0.0 in /  0 mm
07:24 5.3 °F /  -14.8 °C 4.3 °F /  -15.4 °C 1025.6 in /  34726.8 hPa Calm   1.6 mph /  2.6 km/h 93 % 0.0 in /  0 mm
07:30 5.2 °F /  -14.9 °C 4.2 °F /  -15.4 °C 1025.6 in /  34726.8 hPa North 1.4 mph /  2.3 km/h 3.2 mph /  5.1 km/h 93 % 0.0 in /  0 mm
07:36 5.2 °F /  -14.9 °C 4.2 °F /  -15.4 °C 1025.6 in /  34726.8 hPa Calm   4.8 mph /  7.7 km/h 93 % 0.0 in /  0 mm
07:42 5.2 °F /  -14.9 °C 4.2 °F /  -15.4 °C 1025.6 in /  34726.8 hPa Calm   3.2 mph /  5.1 km/h 93 % 0.0 in /  0 mm
07:48 5.1 °F /  -14.9 °C 4.1 °F /  -15.5 °C 1026.0 in /  34740.4 hPa NNE 1.4 mph /  2.3 km/h 4.8 mph /  7.7 km/h 93 % 0.0 in /  0 mm
07:54 5.1 °F /  -14.9 °C 4.1 °F /  -15.5 °C 1025.6 in /  34726.8 hPa North 4.7 mph /  7.6 km/h 6.4 mph /  10.3 km/h 93 % 0.0 in /  0 mm
08:00 5.1 °F /  -14.9 °C 4.1 °F /  -15.5 °C 1026.0 in /  34740.4 hPa NNE 3.2 mph /  5.1 km/h 8.0 mph /  12.9 km/h 93 % 0.0 in /  0 mm
08:06 5.0 °F /  -15 °C 4.0 °F /  -15.6 °C 1026.0 in /  34740.4 hPa Calm   4.8 mph /  7.7 km/h 93 % 0.0 in /  0 mm
08:12 4.9 °F /  -15.1 °C 3.9 °F /  -15.6 °C 1026.0 in /  34740.4 hPa North 1.4 mph /  2.3 km/h 3.2 mph /  5.1 km/h 93 % 0.0 in /  0 mm
08:18 4.9 °F /  -15.1 °C 4.0 °F /  -15.6 °C 1026.3 in /  34750.5 hPa NNE 1.4 mph /  2.3 km/h 4.8 mph /  7.7 km/h 94 % 0.0 in /  0 mm
08:24 4.8 °F /  -15.1 °C 3.9 °F /  -15.6 °C 1026.0 in /  34740.4 hPa NNW 3.2 mph /  5.1 km/h 4.8 mph /  7.7 km/h 94 % 0.0 in /  0 mm
08:30 4.8 °F /  -15.1 °C 3.9 °F /  -15.6 °C 1026.3 in /  34750.5 hPa NNW 4.7 mph /  7.6 km/h 4.8 mph /  7.7 km/h 94 % 0.0 in /  0 mm
08:37 4.8 °F /  -15.1 °C 3.9 °F /  -15.6 °C 1026.6 in /  34760.7 hPa NNW 3.2 mph /  5.1 km/h 4.8 mph /  7.7 km/h 94 % 0.0 in /  0 mm
08:43 4.8 °F /  -15.1 °C 3.9 °F /  -15.6 °C 1026.6 in /  34760.7 hPa North 3.2 mph /  5.1 km/h 3.2 mph /  5.1 km/h 94 % 0.0 in /  0 mm
08:49 4.8 °F /  -15.1 °C 3.9 °F /  -15.6 °C 1026.6 in /  34760.7 hPa Calm   1.6 mph /  2.6 km/h 94 % 0.0 in /  0 mm
08:55 4.8 °F /  -15.1 °C 3.9 °F /  -15.6 °C 1026.6 in /  34760.7 hPa North 1.4 mph /  2.3 km/h 3.2 mph /  5.1 km/h 94 % 0.0 in /  0 mm
09:01 4.8 °F /  -15.1 °C 3.9 °F /  -15.6 °C 1026.6 in /  34760.7 hPa NNE 3.2 mph /  5.1 km/h 3.2 mph /  5.1 km/h 94 % 0.0 in /  0 mm
09:07 4.9 °F /  -15.1 °C 4.2 °F /  -15.4 °C 1026.6 in /  34760.7 hPa NE 3.2 mph /  5.1 km/h 4.8 mph /  7.7 km/h 95 % 0.0 in /  0 mm
09:13 5.1 °F /  -14.9 °C 4.4 °F /  -15.3 °C 1026.6 in /  34760.7 hPa NE 3.2 mph /  5.1 km/h 6.4 mph /  10.3 km/h 95 % 0.0 in /  0 mm
09:19 5.2 °F /  -14.9 °C 4.3 °F /  -15.4 °C 1026.6 in /  34760.7 hPa NNE 7.9 mph /  12.7 km/h 8.0 mph /  12.9 km/h 94 % 0.0 in /  0 mm
09:25 5.3 °F /  -14.8 °C 4.4 °F /  -15.3 °C 1027.0 in /  34774.2 hPa North 3.2 mph /  5.1 km/h 8.0 mph /  12.9 km/h 94 % 0.0 in /  0 mm
09:31 5.4 °F /  -14.8 °C 4.5 °F /  -15.3 °C 1027.0 in /  34774.2 hPa NNE 1.4 mph /  2.3 km/h 3.2 mph /  5.1 km/h 94 % 0.0 in /  0 mm
09:37 5.5 °F /  -14.7 °C 4.6 °F /  -15.2 °C 1026.6 in /  34760.7 hPa NE 3.2 mph /  5.1 km/h 3.2 mph /  5.1 km/h 94 % 0.0 in /  0 mm
09:43 5.7 °F /  -14.6 °C 4.8 °F /  -15.1 °C 1027.0 in /  34774.2 hPa NE 4.7 mph /  7.6 km/h 4.8 mph /  7.7 km/h 94 % 0.0 in /  0 mm
09:49 5.7 °F /  -14.6 °C 4.7 °F /  -15.2 °C 1026.6 in /  34760.7 hPa NE 4.7 mph /  7.6 km/h 9.7 mph /  15.6 km/h 93 % 0.0 in /  0 mm
09:55 5.8 °F /  -14.6 °C 4.8 °F /  -15.1 °C 1026.6 in /  34760.7 hPa NE 4.7 mph /  7.6 km/h 8.0 mph /  12.9 km/h 93 % 0.0 in /  0 mm
10:01 5.8 °F /  -14.6 °C 4.6 °F /  -15.2 °C 1027.0 in /  34774.2 hPa NE 6.4 mph /  10.3 km/h 12.9 mph /  20.8 km/h 92 % 0.0 in /  0 mm
10:07 5.9 °F /  -14.5 °C 4.7 °F /  -15.2 °C 1027.0 in /  34774.2 hPa ENE 4.7 mph /  7.6 km/h 9.7 mph /  15.6 km/h 92 % 0.0 in /  0 mm
10:13 5.9 °F /  -14.5 °C 4.7 °F /  -15.2 °C 1027.0 in /  34774.2 hPa NE 7.9 mph /  12.7 km/h 11.3 mph /  18.2 km/h 92 % 0.0 in /  0 mm
10:19 5.9 °F /  -14.5 °C 4.7 °F /  -15.2 °C 1027.0 in /  34774.2 hPa NNE 4.7 mph /  7.6 km/h 12.9 mph /  20.8 km/h 92 % 0.0 in /  0 mm
10:25 5.9 °F /  -14.5 °C 4.7 °F /  -15.2 °C 1027.0 in /  34774.2 hPa NNE 4.7 mph /  7.6 km/h 12.9 mph /  20.8 km/h 92 % 0.0 in /  0 mm
10:31 5.9 °F /  -14.5 °C 4.7 °F /  -15.2 °C 1027.0 in /  34774.2 hPa NE 1.4 mph /  2.3 km/h 11.3 mph /  18.2 km/h 92 % 0.0 in /  0 mm
10:37 5.9 °F /  -14.5 °C 4.7 °F /  -15.2 °C 1027.0 in /  34774.2 hPa NE 4.7 mph /  7.6 km/h 12.9 mph /  20.8 km/h 92 % 0.0 in /  0 mm
10:43 5.9 °F /  -14.5 °C 4.7 °F /  -15.2 °C 1027.0 in /  34774.2 hPa NNE 3.2 mph /  5.1 km/h 12.9 mph /  20.8 km/h 92 % 0.0 in /  0 mm
10:49 6.1 °F /  -14.4 °C 4.7 °F /  -15.2 °C 1027.0 in /  34774.2 hPa NNE 7.9 mph /  12.7 km/h 11.3 mph /  18.2 km/h 91 % 0.0 in /  0 mm
10:55 6.3 °F /  -14.3 °C 4.9 °F /  -15.1 °C 1027.0 in /  34774.2 hPa NE 7.9 mph /  12.7 km/h 14.5 mph /  23.3 km/h 91 % 0.0 in /  0 mm
11:01 6.4 °F /  -14.2 °C 4.9 °F /  -15.1 °C 1027.0 in /  34774.2 hPa North 4.7 mph /  7.6 km/h 16.1 mph /  25.9 km/h 90 % 0.0 in /  0 mm
11:07 6.4 °F /  -14.2 °C 4.7 °F /  -15.2 °C 1027.0 in /  34774.2 hPa ENE 4.7 mph /  7.6 km/h 14.5 mph /  23.3 km/h 89 % 0.0 in /  0 mm
11:13 6.5 °F /  -14.2 °C 4.8 °F /  -15.1 °C 1027.0 in /  34774.2 hPa NE 7.9 mph /  12.7 km/h 14.5 mph /  23.3 km/h 89 % 0.0 in /  0 mm
11:19 6.6 °F /  -14.1 °C 4.9 °F /  -15.1 °C 1027.0 in /  34774.2 hPa NE 6.4 mph /  10.3 km/h 16.1 mph /  25.9 km/h 89 % 0.0 in /  0 mm
11:25 6.7 °F /  -14.1 °C 4.9 °F /  -15.1 °C 1027.0 in /  34774.2 hPa East 7.9 mph /  12.7 km/h 12.9 mph /  20.8 km/h 88 % 0.0 in /  0 mm
11:31 6.9 °F /  -13.9 °C 4.9 °F /  -15.1 °C 1027.0 in /  34774.2 hPa NE 9.7 mph /  15.6 km/h 16.1 mph /  25.9 km/h 87 % 0.0 in /  0 mm
11:37 7.1 °F /  -13.8 °C 4.9 °F /  -15.1 °C 1027.0 in /  34774.2 hPa NE 11.1 mph /  17.9 km/h 16.1 mph /  25.9 km/h 86 % 0.0 in /  0 mm
11:43 7.1 °F /  -13.8 °C 4.7 °F /  -15.2 °C 1027.0 in /  34774.2 hPa NE 14.3 mph /  23 km/h 22.5 mph /  36.2 km/h 85 % 0.0 in /  0 mm
11:49 7.1 °F /  -13.8 °C 4.7 °F /  -15.2 °C 1027.0 in /  34774.2 hPa NNE 13.0 mph /  20.9 km/h 20.9 mph /  33.6 km/h 85 % 0.0 in /  0 mm
11:55 7.3 °F /  -13.7 °C 4.9 °F /  -15.1 °C 1026.6 in /  34760.7 hPa NE 13.0 mph /  20.9 km/h 20.9 mph /  33.6 km/h 85 % 0.0 in /  0 mm
12:01 7.3 °F /  -13.7 °C 4.8 °F /  -15.1 °C 1027.0 in /  34774.2 hPa NNE 16.3 mph /  26.2 km/h 20.9 mph /  33.6 km/h 84 % 0.0 in /  0 mm
12:07 7.6 °F /  -13.6 °C 4.9 °F /  -15.1 °C 1026.6 in /  34760.7 hPa NNE 9.7 mph /  15.6 km/h 19.3 mph /  31.1 km/h 83 % 0.0 in /  0 mm
12:13 7.7 °F /  -13.5 °C 5.0 °F /  -15 °C 1026.6 in /  34760.7 hPa ESE 7.9 mph /  12.7 km/h 19.3 mph /  31.1 km/h 83 % 0.0 in /  0 mm
12:19 7.9 °F /  -13.4 °C 5.2 °F /  -14.9 °C 1026.6 in /  34760.7 hPa ENE 20.9 mph /  33.6 km/h 20.9 mph /  33.6 km/h 83 % 0.0 in /  0 mm
12:25 7.9 °F /  -13.4 °C 5.2 °F /  -14.9 °C 1026.6 in /  34760.7 hPa ENE 7.9 mph /  12.7 km/h 19.3 mph /  31.1 km/h 83 % 0.0 in /  0 mm
12:31 7.9 °F /  -13.4 °C 5.0 °F /  -15 °C 1026.6 in /  34760.7 hPa NE 16.3 mph /  26.2 km/h 20.9 mph /  33.6 km/h 82 % 0.0 in /  0 mm
12:37 7.9 °F /  -13.4 °C 5.0 °F /  -15 °C 1026.6 in /  34760.7 hPa East 11.1 mph /  17.9 km/h 14.5 mph /  23.3 km/h 82 % 0.0 in /  0 mm
12:43 8.1 °F /  -13.3 °C 5.0 °F /  -15 °C 1026.6 in /  34760.7 hPa ENE 13.0 mph /  20.9 km/h 24.1 mph /  38.8 km/h 81 % 0.0 in /  0 mm
12:49 8.3 °F /  -13.2 °C 5.2 °F /  -14.9 °C 1026.3 in /  34750.5 hPa ENE 7.9 mph /  12.7 km/h 17.7 mph /  28.5 km/h 81 % 0.0 in /  0 mm
12:55 8.4 °F /  -13.1 °C 5.2 °F /  -14.9 °C 1026.3 in /  34750.5 hPa ENE 6.4 mph /  10.3 km/h 20.9 mph /  33.6 km/h 80 % 0.0 in /  0 mm
13:01 8.3 °F /  -13.2 °C 5.1 °F /  -14.9 °C 1026.0 in /  34740.4 hPa ENE 6.4 mph /  10.3 km/h 16.1 mph /  25.9 km/h 80 % 0.0 in /  0 mm
13:07 8.5 °F /  -13.1 °C 5.2 °F /  -14.9 °C 1026.3 in /  34750.5 hPa East 14.3 mph /  23 km/h 19.3 mph /  31.1 km/h 80 % 0.0 in /  0 mm
13:13 8.4 °F /  -13.1 °C 5.0 °F /  -15 °C 1026.3 in /  34750.5 hPa NNE 13.0 mph /  20.9 km/h 13.0 mph /  20.9 km/h 79 % 0.0 in /  0 mm
13:19 8.3 °F /  -13.2 °C 5.1 °F /  -14.9 °C 1026.0 in /  34740.4 hPa NNE 13.0 mph /  20.9 km/h 17.7 mph /  28.5 km/h 80 % 0.0 in /  0 mm
13:25 8.6 °F /  -13 °C 5.5 °F /  -14.7 °C 1026.0 in /  34740.4 hPa ENE 6.4 mph /  10.3 km/h 12.9 mph /  20.8 km/h 81 % 0.0 in /  0 mm
13:31 8.7 °F /  -12.9 °C 5.3 °F /  -14.8 °C 1026.0 in /  34740.4 hPa NE 9.7 mph /  15.6 km/h 16.1 mph /  25.9 km/h 79 % 0.0 in /  0 mm
13:37 8.7 °F /  -12.9 °C 5.4 °F /  -14.8 °C 1026.0 in /  34740.4 hPa ENE 14.3 mph /  23 km/h 14.5 mph /  23.3 km/h 80 % 0.0 in /  0 mm
13:43 8.6 °F /  -13 °C 5.3 °F /  -14.8 °C 1025.6 in /  34726.8 hPa East 6.4 mph /  10.3 km/h 20.9 mph /  33.6 km/h 80 % 0.0 in /  0 mm
13:49 8.8 °F /  -12.9 °C 5.4 °F /  -14.8 °C 1025.6 in /  34726.8 hPa NE 3.2 mph /  5.1 km/h 16.1 mph /  25.9 km/h 79 % 0.0 in /  0 mm
13:55 8.8 °F /  -12.9 °C 5.2 °F /  -14.9 °C 1025.6 in /  34726.8 hPa NE 16.3 mph /  26.2 km/h 17.7 mph /  28.5 km/h 78 % 0.0 in /  0 mm
14:01 8.8 °F /  -12.9 °C 5.0 °F /  -15 °C 1025.6 in /  34726.8 hPa NNE 16.3 mph /  26.2 km/h 20.9 mph /  33.6 km/h 77 % 0.0 in /  0 mm
14:07 8.8 °F /  -12.9 °C 5.2 °F /  -14.9 °C 1025.6 in /  34726.8 hPa NNE 3.2 mph /  5.1 km/h 16.1 mph /  25.9 km/h 78 % 0.0 in /  0 mm
14:13 9.0 °F /  -12.8 °C 5.2 °F /  -14.9 °C 1025.3 in /  34716.7 hPa NE 6.4 mph /  10.3 km/h 11.3 mph /  18.2 km/h 77 % 0.0 in /  0 mm
14:19 9.0 °F /  -12.8 °C 5.0 °F /  -15 °C 1025.3 in /  34716.7 hPa NE 13.0 mph /  20.9 km/h 19.3 mph /  31.1 km/h 76 % 0.0 in /  0 mm
14:25 8.9 °F /  -12.8 °C 4.7 °F /  -15.2 °C 1025.3 in /  34716.7 hPa NNE 9.7 mph /  15.6 km/h 12.9 mph /  20.8 km/h 75 % 0.0 in /  0 mm
14:31 9.1 °F /  -12.7 °C 5.3 °F /  -14.8 °C 1025.3 in /  34716.7 hPa NE 11.1 mph /  17.9 km/h 14.5 mph /  23.3 km/h 77 % 0.0 in /  0 mm
14:37 9.1 °F /  -12.7 °C 4.9 °F /  -15.1 °C 1025.3 in /  34716.7 hPa NNE 7.9 mph /  12.7 km/h 14.5 mph /  23.3 km/h 75 % 0.0 in /  0 mm
14:43 9.1 °F /  -12.7 °C 4.9 °F /  -15.1 °C 1025.3 in /  34716.7 hPa NNE 11.1 mph /  17.9 km/h 17.7 mph /  28.5 km/h 75 % 0.0 in /  0 mm
14:49 9.0 °F /  -12.8 °C 4.8 °F /  -15.1 °C 1024.9 in /  34703.1 hPa NNE 14.3 mph /  23 km/h 14.5 mph /  23.3 km/h 75 % 0.0 in /  0 mm
14:55 9.0 °F /  -12.8 °C 5.0 °F /  -15 °C 1024.9 in /  34703.1 hPa ENE 13.0 mph /  20.9 km/h 13.0 mph /  20.9 km/h 76 % 0.0 in /  0 mm
15:01 9.0 °F /  -12.8 °C 5.0 °F /  -15 °C 1024.9 in /  34703.1 hPa ENE 4.7 mph /  7.6 km/h 16.1 mph /  25.9 km/h 76 % 0.0 in /  0 mm
15:07 9.1 °F /  -12.7 °C 5.1 °F /  -14.9 °C 1024.6 in /  34693 hPa East 9.7 mph /  15.6 km/h 11.3 mph /  18.2 km/h 76 % 0.0 in /  0 mm
15:13 9.0 °F /  -12.8 °C 5.0 °F /  -15 °C 1024.6 in /  34693 hPa North 11.1 mph /  17.9 km/h 14.5 mph /  23.3 km/h 76 % 0.0 in /  0 mm
15:19 8.9 °F /  -12.8 °C 4.9 °F /  -15.1 °C 1024.6 in /  34693 hPa North 13.0 mph /  20.9 km/h 13.0 mph /  20.9 km/h 76 % 0.0 in /  0 mm
15:25 8.9 °F /  -12.8 °C 4.9 °F /  -15.1 °C 1024.6 in /  34693 hPa ENE 6.4 mph /  10.3 km/h 14.5 mph /  23.3 km/h 76 % 0.0 in /  0 mm
15:31 8.9 °F /  -12.8 °C 4.9 °F /  -15.1 °C 1024.3 in /  34682.8 hPa NNE 4.7 mph /  7.6 km/h 14.5 mph /  23.3 km/h 76 % 0.0 in /  0 mm
15:37 8.9 °F /  -12.8 °C 5.1 °F /  -14.9 °C 1024.3 in /  34682.8 hPa ENE 4.7 mph /  7.6 km/h 14.5 mph /  23.3 km/h 77 % 0.0 in /  0 mm
15:43 8.9 °F /  -12.8 °C 5.1 °F /  -14.9 °C 1024.6 in /  34693 hPa NNE 6.4 mph /  10.3 km/h 16.1 mph /  25.9 km/h 77 % 0.0 in /  0 mm
15:49 8.9 °F /  -12.8 °C 5.1 °F /  -14.9 °C 1024.6 in /  34693 hPa NE 13.0 mph /  20.9 km/h 14.5 mph /  23.3 km/h 77 % 0.0 in /  0 mm
15:55 8.9 °F /  -12.8 °C 5.5 °F /  -14.7 °C 1024.3 in /  34682.8 hPa NE 4.7 mph /  7.6 km/h 8.0 mph /  12.9 km/h 79 % 0.0 in /  0 mm
16:01 8.9 °F /  -12.8 °C 5.3 °F /  -14.8 °C 1024.3 in /  34682.8 hPa NNE 4.7 mph /  7.6 km/h 12.9 mph /  20.8 km/h 78 % 0.0 in /  0 mm
16:07 8.9 °F /  -12.8 °C 5.3 °F /  -14.8 °C 1023.9 in /  34669.3 hPa NE 7.9 mph /  12.7 km/h 16.1 mph /  25.9 km/h 78 % 0.0 in /  0 mm
16:13 8.9 °F /  -12.8 °C 5.5 °F /  -14.7 °C 1023.9 in /  34669.3 hPa NE 11.1 mph /  17.9 km/h 14.5 mph /  23.3 km/h 79 % 0.0 in /  0 mm
16:19 8.9 °F /  -12.8 °C 5.5 °F /  -14.7 °C 1023.9 in /  34669.3 hPa ENE 6.4 mph /  10.3 km/h 16.1 mph /  25.9 km/h 79 % 0.0 in /  0 mm
16:25 8.9 °F /  -12.8 °C 5.5 °F /  -14.7 °C 1023.9 in /  34669.3 hPa ENE 6.4 mph /  10.3 km/h 11.3 mph /  18.2 km/h 79 % 0.0 in /  0 mm
16:31 8.9 °F /  -12.8 °C 5.5 °F /  -14.7 °C 1023.9 in /  34669.3 hPa NNE 11.1 mph /  17.9 km/h 12.9 mph /  20.8 km/h 79 % 0.0 in /  0 mm
16:37 8.8 °F /  -12.9 °C 5.4 °F /  -14.8 °C 1023.9 in /  34669.3 hPa NE 4.7 mph /  7.6 km/h 8.0 mph /  12.9 km/h 79 % 0.0 in /  0 mm
16:43 8.8 °F /  -12.9 °C 5.4 °F /  -14.8 °C 1023.9 in /  34669.3 hPa ENE 6.4 mph /  10.3 km/h 14.5 mph /  23.3 km/h 79 % 0.0 in /  0 mm
16:49 8.8 °F /  -12.9 °C 5.2 °F /  -14.9 °C 1023.9 in /  34669.3 hPa NE 6.4 mph /  10.3 km/h 20.9 mph /  33.6 km/h 78 % 0.0 in /  0 mm
16:55 8.8 °F /  -12.9 °C 5.4 °F /  -14.8 °C 1023.9 in /  34669.3 hPa ENE 11.1 mph /  17.9 km/h 14.5 mph /  23.3 km/h 79 % 0.0 in /  0 mm
17:01 8.7 °F /  -12.9 °C 5.4 °F /  -14.8 °C 1023.9 in /  34669.3 hPa NE 9.7 mph /  15.6 km/h 14.5 mph /  23.3 km/h 80 % 0.0 in /  0 mm
17:07 8.7 °F /  -12.9 °C 5.3 °F /  -14.8 °C 1023.9 in /  34669.3 hPa NE 9.7 mph /  15.6 km/h 16.1 mph /  25.9 km/h 79 % 0.0 in /  0 mm
17:13 8.6 °F /  -13 °C 5.3 °F /  -14.8 °C 1023.6 in /  34659.1 hPa NNE 9.7 mph /  15.6 km/h 9.7 mph /  15.6 km/h 80 % 0.0 in /  0 mm
17:19 8.6 °F /  -13 °C 5.3 °F /  -14.8 °C 1023.6 in /  34659.1 hPa East 1.4 mph /  2.3 km/h 9.7 mph /  15.6 km/h 80 % 0.0 in /  0 mm
17:25 8.6 °F /  -13 °C 5.3 °F /  -14.8 °C 1023.6 in /  34659.1 hPa NNE 3.2 mph /  5.1 km/h 9.7 mph /  15.6 km/h 80 % 0.0 in /  0 mm
17:32 8.5 °F /  -13.1 °C 5.4 °F /  -14.8 °C 1023.6 in /  34659.1 hPa NNE 6.4 mph /  10.3 km/h 11.3 mph /  18.2 km/h 81 % 0.0 in /  0 mm
17:38 8.4 °F /  -13.1 °C 5.3 °F /  -14.8 °C 1023.2 in /  34645.6 hPa NNE 4.7 mph /  7.6 km/h 9.7 mph /  15.6 km/h 81 % 0.0 in /  0 mm
17:44 8.4 °F /  -13.1 °C 5.3 °F /  -14.8 °C 1023.6 in /  34659.1 hPa NNE 6.4 mph /  10.3 km/h 12.9 mph /  20.8 km/h 81 % 0.0 in /  0 mm
17:50 8.4 °F /  -13.1 °C 5.5 °F /  -14.7 °C 1023.2 in /  34645.6 hPa NE 6.4 mph /  10.3 km/h 11.3 mph /  18.2 km/h 82 % 0.0 in /  0 mm
17:56 8.3 °F /  -13.2 °C 5.4 °F /  -14.8 °C 1023.2 in /  34645.6 hPa NNE 6.4 mph /  10.3 km/h 11.3 mph /  18.2 km/h 82 % 0.0 in /  0 mm
18:02 8.3 °F /  -13.2 °C 5.4 °F /  -14.8 °C 1023.2 in /  34645.6 hPa NE 7.9 mph /  12.7 km/h 12.9 mph /  20.8 km/h 82 % 0.0 in /  0 mm
18:08 8.2 °F /  -13.2 °C 5.3 °F /  -14.8 °C 1023.2 in /  34645.6 hPa NE 7.9 mph /  12.7 km/h 11.3 mph /  18.2 km/h 82 % 0.0 in /  0 mm
18:14 8.2 °F /  -13.2 °C 5.5 °F /  -14.7 °C 1023.2 in /  34645.6 hPa NE 1.4 mph /  2.3 km/h 11.3 mph /  18.2 km/h 83 % 0.0 in /  0 mm
18:20 8.1 °F /  -13.3 °C 5.2 °F /  -14.9 °C 1023.2 in /  34645.6 hPa East 1.4 mph /  2.3 km/h 9.7 mph /  15.6 km/h 82 % 0.0 in /  0 mm
18:26 8.1 °F /  -13.3 °C 5.4 °F /  -14.8 °C 1023.2 in /  34645.6 hPa ENE 7.9 mph /  12.7 km/h 11.3 mph /  18.2 km/h 83 % 0.0 in /  0 mm
18:32 8.1 °F /  -13.3 °C 5.4 °F /  -14.8 °C 1023.2 in /  34645.6 hPa NE 6.4 mph /  10.3 km/h 8.0 mph /  12.9 km/h 83 % 0.0 in /  0 mm
18:38 8.0 °F /  -13.3 °C 5.3 °F /  -14.8 °C 1022.9 in /  34635.4 hPa Calm   6.4 mph /  10.3 km/h 83 % 0.0 in /  0 mm
18:44 8.0 °F /  -13.3 °C 5.5 °F /  -14.7 °C 1022.9 in /  34635.4 hPa East 1.4 mph /  2.3 km/h 6.4 mph /  10.3 km/h 84 % 0.0 in /  0 mm
18:50 7.9 °F /  -13.4 °C 5.4 °F /  -14.8 °C 1023.2 in /  34645.6 hPa ENE 4.7 mph /  7.6 km/h 8.0 mph /  12.9 km/h 84 % 0.0 in /  0 mm
18:56 7.9 °F /  -13.4 °C 5.4 °F /  -14.8 °C 1023.2 in /  34645.6 hPa East 4.7 mph /  7.6 km/h 6.4 mph /  10.3 km/h 84 % 0.0 in /  0 mm
19:02 7.9 °F /  -13.4 °C 5.4 °F /  -14.8 °C 1022.9 in /  34635.4 hPa East 3.2 mph /  5.1 km/h 6.4 mph /  10.3 km/h 84 % 0.0 in /  0 mm
19:08 7.8 °F /  -13.4 °C 5.1 °F /  -14.9 °C 1022.9 in /  34635.4 hPa ENE 6.4 mph /  10.3 km/h 11.3 mph /  18.2 km/h 83 % 0.0 in /  0 mm
19:14 7.8 °F /  -13.4 °C 5.1 °F /  -14.9 °C 1022.9 in /  34635.4 hPa ENE 3.2 mph /  5.1 km/h 12.9 mph /  20.8 km/h 83 % 0.0 in /  0 mm
19:20 7.8 °F /  -13.4 °C 5.1 °F /  -14.9 °C 1022.9 in /  34635.4 hPa NE 6.4 mph /  10.3 km/h 11.3 mph /  18.2 km/h 83 % 0.0 in /  0 mm
19:26 7.7 °F /  -13.5 °C 5.0 °F /  -15 °C 1022.9 in /  34635.4 hPa ENE 1.4 mph /  2.3 km/h 8.0 mph /  12.9 km/h 83 % 0.0 in /  0 mm
19:32 7.7 °F /  -13.5 °C 5.0 °F /  -15 °C 1022.9 in /  34635.4 hPa ENE 4.7 mph /  7.6 km/h 9.7 mph /  15.6 km/h 83 % 0.0 in /  0 mm
19:38 7.7 °F /  -13.5 °C 5.0 °F /  -15 °C 1022.9 in /  34635.4 hPa East 7.9 mph /  12.7 km/h 8.0 mph /  12.9 km/h 83 % 0.0 in /  0 mm
19:44 7.7 °F /  -13.5 °C 5.0 °F /  -15 °C 1022.6 in /  34625.2 hPa ENE 7.9 mph /  12.7 km/h 9.7 mph /  15.6 km/h 83 % 0.0 in /  0 mm
19:50 7.6 °F /  -13.6 °C 4.9 °F /  -15.1 °C 1022.6 in /  34625.2 hPa NE 3.2 mph /  5.1 km/h 8.0 mph /  12.9 km/h 83 % 0.0 in /  0 mm
19:56 7.6 °F /  -13.6 °C 4.9 °F /  -15.1 °C 1022.6 in /  34625.2 hPa NE 3.2 mph /  5.1 km/h 9.7 mph /  15.6 km/h 83 % 0.0 in /  0 mm
20:02 7.6 °F /  -13.6 °C 4.9 °F /  -15.1 °C 1022.6 in /  34625.2 hPa NE 7.9 mph /  12.7 km/h 11.3 mph /  18.2 km/h 83 % 0.0 in /  0 mm
20:08 7.6 °F /  -13.6 °C 4.9 °F /  -15.1 °C 1022.6 in /  34625.2 hPa NNE 14.3 mph /  23 km/h 14.5 mph /  23.3 km/h 83 % 0.0 in /  0 mm
20:14 7.5 °F /  -13.6 °C 4.8 °F /  -15.1 °C 1022.6 in /  34625.2 hPa ENE 11.1 mph /  17.9 km/h 11.3 mph /  18.2 km/h 83 % 0.0 in /  0 mm
20:20 7.5 °F /  -13.6 °C 4.8 °F /  -15.1 °C 1022.2 in /  34611.7 hPa ENE 11.1 mph /  17.9 km/h 14.5 mph /  23.3 km/h 83 % 0.0 in /  0 mm
20:26 7.4 °F /  -13.7 °C 4.7 °F /  -15.2 °C 1022.2 in /  34611.7 hPa NNE 11.1 mph /  17.9 km/h 11.3 mph /  18.2 km/h 83 % 0.0 in /  0 mm
20:32 7.4 °F /  -13.7 °C 4.7 °F /  -15.2 °C 1022.2 in /  34611.7 hPa NE 9.7 mph /  15.6 km/h 12.9 mph /  20.8 km/h 83 % 0.0 in /  0 mm
20:38 7.4 °F /  -13.7 °C 4.7 °F /  -15.2 °C 1022.2 in /  34611.7 hPa NE 11.1 mph /  17.9 km/h 14.5 mph /  23.3 km/h 83 % 0.0 in /  0 mm
20:44 7.4 °F /  -13.7 °C 4.7 °F /  -15.2 °C 1022.2 in /  34611.7 hPa NE 7.9 mph /  12.7 km/h 12.9 mph /  20.8 km/h 83 % 0.0 in /  0 mm
20:50 7.4 °F /  -13.7 °C 4.7 °F /  -15.2 °C 1022.2 in /  34611.7 hPa NE 3.2 mph /  5.1 km/h 11.3 mph /  18.2 km/h 83 % 0.0 in /  0 mm
20:56 7.4 °F /  -13.7 °C 4.7 °F /  -15.2 °C 1022.2 in /  34611.7 hPa NE 7.9 mph /  12.7 km/h 16.1 mph /  25.9 km/h 83 % 0.0 in /  0 mm
21:02 7.3 °F /  -13.7 °C 4.6 °F /  -15.2 °C 1021.9 in /  34601.5 hPa NNE 3.2 mph /  5.1 km/h 11.3 mph /  18.2 km/h 83 % 0.0 in /  0 mm
21:08 7.4 °F /  -13.7 °C 4.7 °F /  -15.2 °C 1021.9 in /  34601.5 hPa NE 1.4 mph /  2.3 km/h 8.0 mph /  12.9 km/h 83 % 0.0 in /  0 mm
21:14 7.3 °F /  -13.7 °C 4.8 °F /  -15.1 °C 1021.9 in /  34601.5 hPa NE 4.7 mph /  7.6 km/h 8.0 mph /  12.9 km/h 84 % 0.0 in /  0 mm
21:20 7.3 °F /  -13.7 °C 4.6 °F /  -15.2 °C 1021.9 in /  34601.5 hPa ENE 6.4 mph /  10.3 km/h 9.7 mph /  15.6 km/h 83 % 0.0 in /  0 mm
21:26 7.3 °F /  -13.7 °C 4.6 °F /  -15.2 °C 1021.9 in /  34601.5 hPa NE 4.7 mph /  7.6 km/h 8.0 mph /  12.9 km/h 83 % 0.0 in /  0 mm
21:34 7.2 °F /  -13.8 °C 4.7 °F /  -15.2 °C 1021.6 in /  34591.4 hPa NE 3.2 mph /  5.1 km/h 4.8 mph /  7.7 km/h 84 % 0.0 in /  0 mm
21:40 7.1 °F /  -13.8 °C 4.7 °F /  -15.2 °C 1021.6 in /  34591.4 hPa NE 3.2 mph /  5.1 km/h 8.0 mph /  12.9 km/h 85 % 0.0 in /  0 mm
21:46 7.1 °F /  -13.8 °C 4.7 °F /  -15.2 °C 1021.2 in /  34577.8 hPa NE 6.4 mph /  10.3 km/h 9.7 mph /  15.6 km/h 85 % 0.0 in /  0 mm
21:52 7.1 °F /  -13.8 °C 4.7 °F /  -15.2 °C 1021.6 in /  34591.4 hPa NNE 6.4 mph /  10.3 km/h 9.7 mph /  15.6 km/h 85 % 0.0 in /  0 mm
21:58 7.0 °F /  -13.9 °C 4.7 °F /  -15.2 °C 1021.2 in /  34577.8 hPa NE 7.9 mph /  12.7 km/h 8.0 mph /  12.9 km/h 85 % 0.0 in /  0 mm
22:04 7.0 °F /  -13.9 °C 4.7 °F /  -15.2 °C 1021.2 in /  34577.8 hPa NE 6.4 mph /  10.3 km/h 8.0 mph /  12.9 km/h 85 % 0.0 in /  0 mm
22:10 6.9 °F /  -13.9 °C 4.6 °F /  -15.2 °C 1021.2 in /  34577.8 hPa NNE 7.9 mph /  12.7 km/h 8.0 mph /  12.9 km/h 85 % 0.0 in /  0 mm
22:18 6.9 °F /  -13.9 °C 4.7 °F /  -15.2 °C 1021.2 in /  34577.8 hPa NE 4.7 mph /  7.6 km/h 11.3 mph /  18.2 km/h 86 % 0.0 in /  0 mm
22:24 6.9 °F /  -13.9 °C 4.7 °F /  -15.2 °C 1020.9 in /  34567.7 hPa NE 6.4 mph /  10.3 km/h 9.7 mph /  15.6 km/h 86 % 0.0 in /  0 mm
22:30 6.9 °F /  -13.9 °C 4.7 °F /  -15.2 °C 1020.9 in /  34567.7 hPa NE 4.7 mph /  7.6 km/h 8.0 mph /  12.9 km/h 86 % 0.0 in /  0 mm
22:36 6.9 °F /  -13.9 °C 4.7 °F /  -15.2 °C 1020.9 in /  34567.7 hPa ENE 4.7 mph /  7.6 km/h 11.3 mph /  18.2 km/h 86 % 0.0 in /  0 mm
22:42 6.9 °F /  -13.9 °C 4.7 °F /  -15.2 °C 1020.9 in /  34567.7 hPa NE 1.4 mph /  2.3 km/h 6.4 mph /  10.3 km/h 86 % 0.0 in /  0 mm
22:48 6.9 °F /  -13.9 °C 4.7 °F /  -15.2 °C 1020.9 in /  34567.7 hPa ENE 3.2 mph /  5.1 km/h 4.8 mph /  7.7 km/h 86 % 0.0 in /  0 mm
22:54 6.9 °F /  -13.9 °C 4.7 °F /  -15.2 °C 1020.5 in /  34554.1 hPa NE 1.4 mph /  2.3 km/h 4.8 mph /  7.7 km/h 86 % 0.0 in /  0 mm
23:00 6.9 °F /  -13.9 °C 4.7 °F /  -15.2 °C 1020.5 in /  34554.1 hPa NNE 1.4 mph /  2.3 km/h 11.3 mph /  18.2 km/h 86 % 0.0 in /  0 mm
23:06 6.9 °F /  -13.9 °C 4.7 °F /  -15.2 °C 1020.5 in /  34554.1 hPa NE 3.2 mph /  5.1 km/h 6.4 mph /  10.3 km/h 86 % 0.0 in /  0 mm
23:12 6.8 °F /  -14 °C 4.6 °F /  -15.2 °C 1020.2 in /  34544 hPa Calm   6.4 mph /  10.3 km/h 86 % 0.0 in /  0 mm
23:18 6.8 °F /  -14 °C 4.8 °F /  -15.1 °C 1019.9 in /  34533.8 hPa ENE 1.4 mph /  2.3 km/h 4.8 mph /  7.7 km/h 87 % 0.0 in /  0 mm
23:24 6.8 °F /  -14 °C 4.8 °F /  -15.1 °C 1019.9 in /  34533.8 hPa ENE 3.2 mph /  5.1 km/h 8.0 mph /  12.9 km/h 87 % 0.0 in /  0 mm
23:30 6.7 °F /  -14.1 °C 4.7 °F /  -15.2 °C 1019.5 in /  34520.3 hPa East 6.4 mph /  10.3 km/h 8.0 mph /  12.9 km/h 87 % 0.0 in /  0 mm
23:36 6.7 °F /  -14.1 °C 4.7 °F /  -15.2 °C 1019.5 in /  34520.3 hPa NE 1.4 mph /  2.3 km/h 6.4 mph /  10.3 km/h 87 % 0.0 in /  0 mm
23:42 6.7 °F /  -14.1 °C 4.9 °F /  -15.1 °C 1019.5 in /  34520.3 hPa Calm   6.4 mph /  10.3 km/h 88 % 0.0 in /  0 mm
23:48 6.6 °F /  -14.1 °C 4.8 °F /  -15.1 °C 1019.5 in /  34520.3 hPa ENE 6.4 mph /  10.3 km/h 6.4 mph /  10.3 km/h 88 % 0.0 in /  0 mm
23:54 6.5 °F /  -14.2 °C 4.8 °F /  -15.1 °C 1019.2 in /  34510.1 hPa NE 4.7 mph /  7.6 km/h 6.4 mph /  10.3 km/h 89 % 0.3 in /  7.62 mm
Meteo18
Compliments of Weather Underground - 4 mb

Script developed by  Jim McMurry - jmcmurry@mwt.net Adapted for the template by  Wim van der Kuil - Leuven-Template.eu

You find our weather info also at:

European Weather Network

Weather Underground

Equipment we use:

Weather-station
Davis Vue

Weather-program
Meteobridge

Weather-server
Raspberry PI 2 B+

Provider
1 and 1

Davis Vue

Meteobridge

Raspberry PI 2 B+

1 and 1